1997 IVAN (1997283N07177)


On this page: IBTrACS data - Map and Plots - Positions - Intensities - Original source data

Summary

Start Oct 9
End Oct 26
Basin WP
LMI 160 kt
Sources jtwc_wp
tokyo
cma
hko
In WMO? Yes
Previous storm 1997 THREE-C (EP)
Previous in basin 1997 MISSING (WP)
Concurrent storms 1997 OLAF (EP)
1998 LUSI (SP)
1997 PAULINE (EP)
1997 IVAN (WP)
1997 JOAN (WP)
1997 GRACE (NA)
1997 MISSING (WP)
1998 HSK0398 (SP)
1997 LINDA (WP)
1997 KEITH (WP)
Next in basin 1997 JOAN (WP)
Next storm 1997 JOAN (WP)

top of page IBTrACS Data: File Access

top of page HURSAT Data: File Access

Image of storm

top of page Plots:

Map of storm track will not appear if FTP is down
Time series of cyclone Maximum Sustained Wind will not appear if FTP is down
Time series of cyclone Minimum Central Pressure will not appear if FTP is down

top of page Track Data:Position

jtwc_wp tokyo cma hko
Date Lat Lon Lat Lon Lat Lon Lat Lon
1997-10-09 12:00:00 7.0 177.0
1997-10-09 18:00:00 7.0 175.0
1997-10-10 00:00:00 7.0 173.0
1997-10-10 06:00:00 6.9 171.0
1997-10-10 12:00:00 6.7 169.2
1997-10-10 18:00:00 6.6 167.6
1997-10-11 00:00:00 6.6 166.2
1997-10-11 06:00:00 6.7 164.9
1997-10-11 12:00:00 7.0 163.2
1997-10-11 18:00:00 7.6 161.6
1997-10-12 00:00:00 8.3 160.0
1997-10-12 06:00:00 9.0 158.3
1997-10-12 12:00:00 9.5 156.8
1997-10-12 18:00:00 9.9 155.3
1997-10-13 00:00:00 10.1 154.1 10.8 155.5
1997-10-13 06:00:00 10.4 152.8 10.9 153.6
1997-10-13 12:00:00 10.8 151.5 11.1 151.5
1997-10-13 18:00:00 11.2 150.1 11.5 149.8 11.5 150.0 11.2 150.1
1997-10-14 00:00:00 11.6 148.6 11.9 148.5 11.7 148.5 11.8 148.5
1997-10-14 06:00:00 12.0 147.0 12.0 146.8 12.0 146.8 12.1 146.8
1997-10-14 12:00:00 12.4 145.4 12.2 145.0 12.2 145.2 12.3 145.1
1997-10-14 18:00:00 12.7 143.8 12.5 143.5 12.5 143.5 12.6 143.6
1997-10-15 00:00:00 13.0 142.6 13.0 142.1 12.9 142.2 13.0 142.2
1997-10-15 06:00:00 13.3 141.4 13.5 141.0 13.5 140.9 13.5 141.0
1997-10-15 12:00:00 13.7 140.0 14.2 139.8 13.9 140.0 13.8 140.0
jtwc_wp tokyo cma hko
1997-10-15 18:00:00 14.0 138.8 14.5 138.9 14.2 139.0 14.1 139.0
1997-10-16 00:00:00 14.3 137.6 14.4 137.4 14.4 137.4 14.3 137.6
1997-10-16 06:00:00 14.4 136.1 14.5 136.2 14.5 136.1 14.4 136.1
1997-10-16 12:00:00 14.5 134.6 14.6 134.7 14.6 134.8 14.5 134.6
1997-10-16 18:00:00 14.6 133.1 14.8 133.0 14.7 133.1 14.5 133.2
1997-10-17 00:00:00 14.5 131.7 14.6 131.8 14.6 131.8 14.5 131.9
1997-10-17 06:00:00 14.5 130.5 14.6 130.6 14.6 130.6 14.5 130.6
1997-10-17 12:00:00 14.6 129.3 14.6 129.5 14.5 129.5 14.5 129.4
1997-10-17 18:00:00 14.6 128.3 14.7 128.3 14.7 128.4 14.6 128.3
1997-10-18 00:00:00 14.8 127.2 14.9 127.2 14.8 127.2 14.8 127.2
1997-10-18 06:00:00 15.2 126.3 15.2 126.3 15.2 126.3 15.1 126.3
1997-10-18 12:00:00 15.6 125.4 15.6 125.5 15.6 125.4 15.5 125.5
1997-10-18 18:00:00 16.0 124.7 16.0 124.8 16.0 124.7 16.0 124.7
1997-10-19 00:00:00 16.5 124.0 16.6 124.0 16.6 124.0 16.6 123.9
1997-10-19 06:00:00 17.1 123.4 17.2 123.4 17.2 123.4 17.1 123.3
1997-10-19 12:00:00 17.6 122.7 17.5 122.7 17.5 122.7 17.6 122.7
1997-10-19 18:00:00 18.1 122.2 18.0 122.4 18.0 122.4 18.0 122.3
1997-10-20 00:00:00 18.4 122.0 18.2 122.4 18.4 121.9 18.3 122.1
1997-10-20 06:00:00 18.7 121.9 18.5 122.2 18.6 121.8 18.6 122.0
1997-10-20 12:00:00 19.0 121.9 18.9 122.2 18.8 121.9 18.9 122.0
1997-10-20 18:00:00 19.3 122.3 19.2 122.3 19.0 122.2 19.2 122.3
1997-10-21 00:00:00 19.5 123.0 19.7 123.1 19.4 123.0 19.6 123.0
1997-10-21 06:00:00 19.8 123.7 19.9 123.8 19.9 123.7 19.9 123.8
1997-10-21 12:00:00 20.1 124.6 20.1 124.6 20.0 124.6 20.1 124.7
jtwc_wp tokyo cma hko
1997-10-21 18:00:00 20.4 125.5 20.2 125.6 20.2 125.6 20.3 125.6
1997-10-22 00:00:00 20.8 126.4 20.6 126.1 20.7 126.5 20.7 126.4
1997-10-22 06:00:00 21.4 127.1 21.2 126.7 21.2 126.9 21.2 127.0
1997-10-22 12:00:00 22.0 127.7 21.8 127.3 21.9 127.3 21.8 127.6
1997-10-22 18:00:00 22.6 128.4 22.6 128.2 22.8 128.1 22.6 128.3
1997-10-23 00:00:00 23.2 129.2 23.3 129.1 23.2 129.1 23.4 129.2
1997-10-23 06:00:00 24.0 130.3 24.2 130.0 24.2 130.1 24.1 130.1
1997-10-23 12:00:00 24.9 131.5 24.8 131.1 24.7 131.0 24.8 131.0
1997-10-23 18:00:00 25.6 132.7 25.2 132.1 25.2 132.0 25.4 132.0
1997-10-24 00:00:00 26.2 134.0 26.0 133.4 26.0 133.4 26.0 133.2
1997-10-24 06:00:00 26.8 135.0 26.9 134.9 26.7 134.7 26.7 134.7
1997-10-24 12:00:00 27.5 136.3 27.5 136.5 27.4 136.4
1997-10-24 18:00:00 28.3 137.7 28.2 138.0 28.1 138.0
1997-10-25 00:00:00 28.7 139.5 28.7 139.6 28.8 139.7
1997-10-25 06:00:00 29.0 141.3 29.0 141.2 29.0 141.0
1997-10-25 12:00:00 29.2 143.0 29.5 143.2
1997-10-25 18:00:00 29.2 144.9 29.9 145.7
1997-10-26 00:00:00 29.2 146.9 30.0 148.0
1997-10-26 06:00:00 30.9 151.1
1997-10-26 12:00:00 32.6 154.0
1997-10-26 18:00:00 33.8 157.4

top of pageTrack Data:Intensity

jtwc_wp tokyo cma hko
Date Wind Pres Wind Pres Wind Pres Wind Pres
1997-10-09 12:00:00 15.
1997-10-09 18:00:00 15.
1997-10-10 00:00:00 15.
1997-10-10 06:00:00 15.
1997-10-10 12:00:00 15.
1997-10-10 18:00:00 15.
1997-10-11 00:00:00 20.
1997-10-11 06:00:00 20.
1997-10-11 12:00:00 20.
1997-10-11 18:00:00 20.
1997-10-12 00:00:00 20.
1997-10-12 06:00:00 20.
1997-10-12 12:00:00 20.
1997-10-12 18:00:00 20.
1997-10-13 00:00:00 20. 1008.
1997-10-13 06:00:00 25. 1006.
1997-10-13 12:00:00 35. 1004.
1997-10-13 18:00:00 40. 1002. 23. 1002. 30. 1000.
1997-10-14 00:00:00 40. 1000. 29. 1000. 30. 1000.
1997-10-14 06:00:00 45. 35. 998. 35. 998. 30. 1000.
1997-10-14 12:00:00 50. 35. 996. 35. 996. 30. 1000.
1997-10-14 18:00:00 55. 40. 994. 39. 995. 35. 996.
1997-10-15 00:00:00 60. 40. 992. 39. 992. 35. 996.
1997-10-15 06:00:00 65. 45. 990. 45. 990. 40. 992.
1997-10-15 12:00:00 70. 50. 985. 49. 990. 45. 990.
jtwc_wp tokyo cma hko
1997-10-15 18:00:00 80. 55. 980. 49. 985. 50. 985.
1997-10-16 00:00:00 85. 65. 970. 58. 980. 55. 980.
1997-10-16 06:00:00 95. 75. 960. 68. 970. 60. 975.
1997-10-16 12:00:00 105. 85. 950. 78. 965. 65. 970.
1997-10-16 18:00:00 120. 90. 940. 78. 965. 70. 965.
1997-10-17 00:00:00 140. 95. 925. 87. 955. 80. 955.
1997-10-17 06:00:00 145. 100. 915. 97. 945. 90. 945.
1997-10-17 12:00:00 155. 105. 905. 97. 940. 100. 930.
1997-10-17 18:00:00 160. 105. 905. 107. 935. 100. 930.
1997-10-18 00:00:00 150. 105. 905. 107. 930. 100. 930.
1997-10-18 06:00:00 145. 105. 905. 107. 930. 95. 940.
1997-10-18 12:00:00 145. 105. 910. 107. 930. 95. 940.
1997-10-18 18:00:00 140. 100. 915. 107. 930. 95. 940.
1997-10-19 00:00:00 140. 100. 915. 97. 940. 95. 940.
1997-10-19 06:00:00 135. 100. 920. 97. 940. 90. 945.
1997-10-19 12:00:00 130. 95. 925. 97. 945. 85. 950.
1997-10-19 18:00:00 120. 90. 935. 87. 950. 80. 955.
1997-10-20 00:00:00 110. 85. 945. 78. 960. 75. 960.
1997-10-20 06:00:00 100. 75. 955. 68. 970. 70. 965.
1997-10-20 12:00:00 90. 70. 960. 64. 975. 65. 970.
1997-10-20 18:00:00 80. 65. 970. 64. 975. 65. 970.
1997-10-21 00:00:00 70. 55. 980. 58. 980. 60. 975.
1997-10-21 06:00:00 65. 50. 985. 49. 985. 55. 980.
1997-10-21 12:00:00 60. 45. 990. 45. 990. 50. 985.
jtwc_wp tokyo cma hko
1997-10-21 18:00:00 60. 45. 990. 45. 990. 50. 985.
1997-10-22 00:00:00 60. 45. 990. 45. 990. 45. 990.
1997-10-22 06:00:00 60. 45. 990. 45. 990. 45. 990.
1997-10-22 12:00:00 65. 45. 990. 45. 990. 45. 990.
1997-10-22 18:00:00 65. 45. 990. 45. 990. 45. 990.
1997-10-23 00:00:00 60. 45. 990. 45. 990. 45. 990.
1997-10-23 06:00:00 60. 45. 990. 49. 985. 45. 990.
1997-10-23 12:00:00 60. 45. 990. 49. 985. 45. 990.
1997-10-23 18:00:00 60. 45. 990. 39. 992. 45. 990.
1997-10-24 00:00:00 60. 45. 992. 39. 992. 45. 990.
1997-10-24 06:00:00 60. 40. 994. 39. 992. 45. 990.
1997-10-24 12:00:00 55. 40. 994. 35. 994.
1997-10-24 18:00:00 50. 35. 996. 29. 996.
1997-10-25 00:00:00 45. 35. 996. 29. 996.
1997-10-25 06:00:00 45. 998. 23. 998.
1997-10-25 12:00:00 45. 1000.
1997-10-25 18:00:00 45. 1000.
1997-10-26 00:00:00 45. 1000.
1997-10-26 06:00:00 1000.
1997-10-26 12:00:00 1000.
1997-10-26 18:00:00 1000.

top of page Links to source data

Source Source file Format
jtwc_wp bwp271997.txt ATCF
tokyo bst_all.txt:Line=47853:IVAN:9723 JMA text table
cma CH1997BST.txt:Storm=24:IVAN CMA text table
hko tc-besttrack-data.txt:Line=26842:IVAN HKO Text table